sensor_id;sensor_type;location;lat;lon;timestamp;pressure;altitude;pressure_sealevel;temperature;humidity
9189;BME280;34313;50.780;6.084;2023-03-13T00:01:45;98383.00;;;10.90;99.81
9189;BME280;34313;50.780;6.084;2023-03-13T00:04:11;98369.72;;;10.80;100.00
9189;BME280;34313;50.780;6.084;2023-03-13T00:06:37;98360.00;;;10.81;100.00
9189;BME280;34313;50.780;6.084;2023-03-13T00:09:05;98354.13;;;10.77;100.00
9189;BME280;34313;50.780;6.084;2023-03-13T00:11:31;98359.16;;;10.80;100.00
9189;BME280;34313;50.780;6.084;2023-03-13T00:13:58;98345.50;;;10.75;100.00
9189;BME280;34313;50.780;6.084;2023-03-13T00:16:24;98332.31;;;10.75;100.00
9189;BME280;34313;50.780;6.084;2023-03-13T00:18:52;98339.13;;;10.77;100.00
9189;BME280;34313;50.780;6.084;2023-03-13T00:21:20;98337.34;;;10.78;100.00
9189;BME280;34313;50.780;6.084;2023-03-13T00:23:46;98328.00;;;10.74;100.00
9189;BME280;34313;50.780;6.084;2023-03-13T00:26:13;98332.06;;;10.78;100.00
9189;BME280;34313;50.780;6.084;2023-03-13T00:28:40;98341.06;;;10.75;100.00
9189;BME280;34313;50.780;6.084;2023-03-13T00:31:08;98323.72;;;10.73;100.00
9189;BME280;34313;50.780;6.084;2023-03-13T00:33:39;98322.84;;;10.72;100.00
9189;BME280;34313;50.780;6.084;2023-03-13T00:36:07;98317.56;;;10.72;100.00
9189;BME280;34313;50.780;6.084;2023-03-13T00:38:33;98305.25;;;10.73;100.00
9189;BME280;34313;50.780;6.084;2023-03-13T00:41:10;98310.16;;;10.77;100.00
9189;BME280;34313;50.780;6.084;2023-03-13T00:43:37;98297.34;;;10.73;100.00
9189;BME280;34313;50.780;6.084;2023-03-13T00:46:03;98283.94;;;10.65;100.00
9189;BME280;34313;50.780;6.084;2023-03-13T00:48:28;98291.72;;;10.66;100.00
9189;BME280;34313;50.780;6.084;2023-03-13T00:50:54;98275.53;;;10.71;100.00
9189;BME280;34313;50.780;6.084;2023-03-13T00:53:20;98282.72;;;10.69;100.00
9189;BME280;34313;50.780;6.084;2023-03-13T00:56:00;98277.69;;;10.77;100.00
9189;BME280;34313;50.780;6.084;2023-03-13T00:58:28;98274.69;;;10.82;100.00
9189;BME280;34313;50.780;6.084;2023-03-13T01:00:54;98263.53;;;10.78;100.00
9189;BME280;34313;50.780;6.084;2023-03-13T01:03:20;98260.19;;;10.87;100.00
9189;BME280;34313;50.780;6.084;2023-03-13T01:05:57;98264.25;;;10.91;100.00
9189;BME280;34313;50.780;6.084;2023-03-13T01:08:22;98267.84;;;10.90;100.00
9189;BME280;34313;50.780;6.084;2023-03-13T01:10:48;98242.94;;;10.94;100.00
9189;BME280;34313;50.780;6.084;2023-03-13T01:13:13;98241.59;;;11.00;100.00
9189;BME280;34313;50.780;6.084;2023-03-13T01:15:39;98243.75;;;10.95;100.00
9189;BME280;34313;50.780;6.084;2023-03-13T01:18:04;98243.28;;;11.01;100.00
9189;BME280;34313;50.780;6.084;2023-03-13T01:20:29;98236.09;;;11.03;100.00
9189;BME280;34313;50.780;6.084;2023-03-13T01:22:55;98235.69;;;11.08;100.00
9189;BME280;34313;50.780;6.084;2023-03-13T01:25:20;98240.97;;;11.08;100.00
9189;BME280;34313;50.780;6.084;2023-03-13T01:27:46;98228.66;;;11.08;100.00
9189;BME280;34313;50.780;6.084;2023-03-13T01:30:11;98231.16;;;10.98;100.00
9189;BME280;34313;50.780;6.084;2023-03-13T01:32:37;98239.31;;;11.07;100.00
9189;BME280;34313;50.780;6.084;2023-03-13T01:35:02;98219.56;;;11.01;100.00
9189;BME280;34313;50.780;6.084;2023-03-13T01:37:27;98230.94;;;11.02;100.00
9189;BME280;34313;50.780;6.084;2023-03-13T01:39:53;98227.81;;;10.96;100.00
9189;BME280;34313;50.780;6.084;2023-03-13T01:42:18;98219.75;;;11.21;100.00
9189;BME280;34313;50.780;6.084;2023-03-13T01:44:52;98212.28;;;11.26;100.00
9189;BME280;34313;50.780;6.084;2023-03-13T01:47:18;98201.03;;;11.24;100.00
9189;BME280;34313;50.780;6.084;2023-03-13T01:49:44;98194.72;;;11.15;100.00
9189;BME280;34313;50.780;6.084;2023-03-13T01:52:16;98187.09;;;11.22;100.00
9189;BME280;34313;50.780;6.084;2023-03-13T01:54:49;98176.56;;;10.89;100.00
9189;BME280;34313;50.780;6.084;2023-03-13T01:59:59;98183.06;;;10.85;100.00
9189;BME280;34313;50.780;6.084;2023-03-13T02:02:27;98180.66;;;10.82;100.00
9189;BME280;34313;50.780;6.084;2023-03-13T02:04:56;98163.66;;;10.75;100.00
9189;BME280;34313;50.780;6.084;2023-03-13T02:07:30;98165.31;;;10.76;100.00
9189;BME280;34313;50.780;6.084;2023-03-13T02:09:58;98159.94;;;10.77;100.00
9189;BME280;34313;50.780;6.084;2023-03-13T02:12:31;98166.63;;;10.82;100.00
9189;BME280;34313;50.780;6.084;2023-03-13T02:14:58;98162.31;;;10.81;100.00
9189;BME280;34313;50.780;6.084;2023-03-13T02:17:25;98160.16;;;10.86;100.00
9189;BME280;34313;50.780;6.084;2023-03-13T02:19:51;98149.84;;;10.83;100.00
9189;BME280;34313;50.780;6.084;2023-03-13T02:27:31;98152.13;;;10.87;100.00
9189;BME280;34313;50.780;6.084;2023-03-13T02:29:58;98150.66;;;10.94;100.00
9189;BME280;34313;50.780;6.084;2023-03-13T02:32:25;98138.84;;;10.89;100.00
9189;BME280;34313;50.780;6.084;2023-03-13T02:34:54;98131.63;;;10.91;100.00
9189;BME280;34313;50.780;6.084;2023-03-13T02:37:22;98129.94;;;10.90;100.00
9189;BME280;34313;50.780;6.084;2023-03-13T02:39:50;98124.66;;;10.90;100.00
9189;BME280;34313;50.780;6.084;2023-03-13T02:42:17;98123.19;;;10.97;100.00
9189;BME280;34313;50.780;6.084;2023-03-13T02:44:45;98114.09;;;11.01;100.00
9189;BME280;34313;50.780;6.084;2023-03-13T02:47:11;98113.97;;;11.03;100.00
9189;BME280;34313;50.780;6.084;2023-03-13T02:49:36;98111.94;;;11.06;100.00
9189;BME280;34313;50.780;6.084;2023-03-13T02:52:10;98082.53;;;11.11;100.00
9189;BME280;34313;50.780;6.084;2023-03-13T02:54:38;98075.31;;;11.13;100.00
9189;BME280;34313;50.780;6.084;2023-03-13T02:57:05;98076.28;;;11.12;100.00
9189;BME280;34313;50.780;6.084;2023-03-13T02:59:31;98103.13;;;11.17;100.00
9189;BME280;34313;50.780;6.084;2023-03-13T03:01:57;98087.28;;;11.17;100.00
9189;BME280;34313;50.780;6.084;2023-03-13T03:04:23;98086.44;;;11.16;100.00
9189;BME280;34313;50.780;6.084;2023-03-13T03:06:50;98082.47;;;11.22;100.00
9189;BME280;34313;50.780;6.084;2023-03-13T03:09:17;98083.44;;;11.21;100.00
9189;BME280;34313;50.780;6.084;2023-03-13T03:11:42;98073.13;;;11.18;100.00
9189;BME280;34313;50.780;6.084;2023-03-13T03:14:09;98078.34;;;11.29;100.00
9189;BME280;34313;50.780;6.084;2023-03-13T03:16:35;98057.06;;;11.21;100.00
9189;BME280;34313;50.780;6.084;2023-03-13T03:19:00;98059.63;;;11.32;100.00
9189;BME280;34313;50.780;6.084;2023-03-13T03:21:26;98079.88;;;11.32;100.00
9189;BME280;34313;50.780;6.084;2023-03-13T03:23:51;98065.41;;;11.26;100.00
9189;BME280;34313;50.780;6.084;2023-03-13T03:26:17;98062.13;;;11.34;100.00
9189;BME280;34313;50.780;6.084;2023-03-13T03:28:42;98060.22;;;11.36;100.00
9189;BME280;34313;50.780;6.084;2023-03-13T03:31:10;98070.38;;;11.41;100.00
9189;BME280;34313;50.780;6.084;2023-03-13T03:33:36;98058.59;;;11.45;100.00
9189;BME280;34313;50.780;6.084;2023-03-13T03:36:04;98043.59;;;11.45;100.00
9189;BME280;34313;50.780;6.084;2023-03-13T03:38:30;98049.31;;;11.50;100.00
9189;BME280;34313;50.780;6.084;2023-03-13T03:40:55;98029.28;;;11.48;100.00
9189;BME280;34313;50.780;6.084;2023-03-13T03:43:21;98029.28;;;11.48;100.00
9189;BME280;34313;50.780;6.084;2023-03-13T03:45:46;98032.94;;;11.57;100.00
9189;BME280;34313;50.780;6.084;2023-03-13T03:48:11;98022.53;;;11.55;100.00
9189;BME280;34313;50.780;6.084;2023-03-13T03:50:37;98042.28;;;11.61;100.00
9189;BME280;34313;50.780;6.084;2023-03-13T03:53:02;98046.91;;;11.68;100.00
9189;BME280;34313;50.780;6.084;2023-03-13T03:55:28;98027.72;;;11.66;100.00
9189;BME280;34313;50.780;6.084;2023-03-13T03:57:53;98022.91;;;11.71;100.00
9189;BME280;34313;50.780;6.084;2023-03-13T04:00:18;98032.34;;;11.74;100.00
9189;BME280;34313;50.780;6.084;2023-03-13T04:02:44;98031.13;;;11.78;100.00
9189;BME280;34313;50.780;6.084;2023-03-13T04:05:10;98039.31;;;11.85;100.00
9189;BME280;34313;50.780;6.084;2023-03-13T04:07:35;98046.28;;;11.86;100.00
9189;BME280;34313;50.780;6.084;2023-03-13T04:10:02;98046.84;;;11.89;100.00
9189;BME280;34313;50.780;6.084;2023-03-13T04:12:28;98058.84;;;11.94;100.00
9189;BME280;34313;50.780;6.084;2023-03-13T04:14:53;98041.91;;;11.96;100.00
9189;BME280;34313;50.780;6.084;2023-03-13T04:17:18;98057.50;;;11.99;100.00
9189;BME280;34313;50.780;6.084;2023-03-13T04:19:44;98049.28;;;12.02;100.00
9189;BME280;34313;50.780;6.084;2023-03-13T04:22:09;98053.91;;;12.10;100.00
9189;BME280;34313;50.780;6.084;2023-03-13T04:24:34;98050.81;;;12.05;100.00
9189;BME280;34313;50.780;6.084;2023-03-13T04:27:00;98035.56;;;12.08;100.00
9189;BME280;34313;50.780;6.084;2023-03-13T04:29:28;98026.63;;;12.09;100.00
9189;BME280;34313;50.780;6.084;2023-03-13T04:31:53;98031.66;;;12.13;100.00
9189;BME280;34313;50.780;6.084;2023-03-13T04:34:18;98018.59;;;12.11;100.00
9189;BME280;34313;50.780;6.084;2023-03-13T04:36:44;98016.38;;;12.16;100.00
9189;BME280;34313;50.780;6.084;2023-03-13T04:39:09;98023.03;;;12.10;100.00
9189;BME280;34313;50.780;6.084;2023-03-13T04:41:34;98007.75;;;12.14;100.00
9189;BME280;34313;50.780;6.084;2023-03-13T04:44:00;98003.59;;;12.12;100.00
9189;BME280;34313;50.780;6.084;2023-03-13T04:46:25;97992.88;;;12.13;100.00
9189;BME280;34313;50.780;6.084;2023-03-13T04:48:50;98003.72;;;12.20;100.00
9189;BME280;34313;50.780;6.084;2023-03-13T04:51:16;97991.78;;;12.16;100.00
9189;BME280;34313;50.780;6.084;2023-03-13T04:53:41;98005.16;;;12.24;100.00
9189;BME280;34313;50.780;6.084;2023-03-13T04:56:07;97975.22;;;12.23;100.00
9189;BME280;34313;50.780;6.084;2023-03-13T04:58:33;97980.13;;;12.28;100.00
9189;BME280;34313;50.780;6.084;2023-03-13T05:00:58;97972.06;;;12.29;100.00
9189;BME280;34313;50.780;6.084;2023-03-13T05:03:23;97979.44;;;12.26;100.00
9189;BME280;34313;50.780;6.084;2023-03-13T05:05:49;97974.84;;;12.28;100.00
9189;BME280;34313;50.780;6.084;2023-03-13T05:08:14;97964.00;;;12.31;100.00
9189;BME280;34313;50.780;6.084;2023-03-13T05:10:42;97958.28;;;12.36;100.00
9189;BME280;34313;50.780;6.084;2023-03-13T05:13:08;97952.75;;;12.29;100.00
9189;BME280;34313;50.780;6.084;2023-03-13T05:15:33;97956.75;;;12.33;100.00
9189;BME280;34313;50.780;6.084;2023-03-13T05:17:58;97941.75;;;12.24;100.00
9189;BME280;34313;50.780;6.084;2023-03-13T05:20:24;97926.31;;;12.19;100.00
9189;BME280;34313;50.780;6.084;2023-03-13T05:22:49;97928.25;;;12.17;100.00
9189;BME280;34313;50.780;6.084;2023-03-13T05:25:15;97927.69;;;12.14;100.00
9189;BME280;34313;50.780;6.084;2023-03-13T05:27:40;97926.59;;;12.06;100.00
9189;BME280;34313;50.780;6.084;2023-03-13T05:30:06;97920.63;;;12.04;100.00
9189;BME280;34313;50.780;6.084;2023-03-13T05:32:31;97931.31;;;12.03;100.00
9189;BME280;34313;50.780;6.084;2023-03-13T05:34:57;97932.97;;;12.04;100.00
9189;BME280;34313;50.780;6.084;2023-03-13T05:37:22;97940.34;;;12.10;100.00
9189;BME280;34313;50.780;6.084;2023-03-13T05:39:47;97949.78;;;12.13;100.00
9189;BME280;34313;50.780;6.084;2023-03-13T05:42:13;97936.75;;;12.21;100.00
9189;BME280;34313;50.780;6.084;2023-03-13T05:44:38;97933.69;;;12.25;100.00
9189;BME280;34313;50.780;6.084;2023-03-13T05:47:03;97948.44;;;12.38;100.00
9189;BME280;34313;50.780;6.084;2023-03-13T05:49:29;97944.66;;;12.40;100.00
9189;BME280;34313;50.780;6.084;2023-03-13T05:51:54;97965.81;;;12.50;100.00
9189;BME280;34313;50.780;6.084;2023-03-13T05:54:19;97959.69;;;12.49;100.00
9189;BME280;34313;50.780;6.084;2023-03-13T05:56:45;97965.09;;;12.58;100.00
9189;BME280;34313;50.780;6.084;2023-03-13T05:59:13;97962.88;;;12.63;100.00
9189;BME280;34313;50.780;6.084;2023-03-13T06:01:38;97973.03;;;12.67;100.00
9189;BME280;34313;50.780;6.084;2023-03-13T06:04:03;97958.69;;;12.70;100.00
9189;BME280;34313;50.780;6.084;2023-03-13T06:06:29;97958.56;;;12.72;100.00
9189;BME280;34313;50.780;6.084;2023-03-13T06:08:54;97959.09;;;12.75;100.00
9189;BME280;34313;50.780;6.084;2023-03-13T06:11:19;97966.91;;;12.77;100.00
9189;BME280;34313;50.780;6.084;2023-03-13T06:13:45;97975.53;;;12.79;100.00
9189;BME280;34313;50.780;6.084;2023-03-13T06:16:10;97975.38;;;12.80;100.00
9189;BME280;34313;50.780;6.084;2023-03-13T06:18:35;97962.59;;;12.85;100.00
9189;BME280;34313;50.780;6.084;2023-03-13T06:21:01;97959.25;;;12.83;100.00
9189;BME280;34313;50.780;6.084;2023-03-13T06:23:27;97967.19;;;12.83;100.00
9189;BME280;34313;50.780;6.084;2023-03-13T06:25:54;97968.28;;;12.91;100.00
9189;BME280;34313;50.780;6.084;2023-03-13T06:28:19;97952.69;;;12.88;100.00
9189;BME280;34313;50.780;6.084;2023-03-13T06:30:45;97958.66;;;12.90;100.00
9189;BME280;34313;50.780;6.084;2023-03-13T06:33:11;97966.47;;;12.91;100.00
9189;BME280;34313;50.780;6.084;2023-03-13T06:35:39;97965.50;;;12.92;100.00
9189;BME280;34313;50.780;6.084;2023-03-13T06:38:05;97972.16;;;12.86;100.00
9189;BME280;34313;50.780;6.084;2023-03-13T06:40:31;97980.09;;;12.96;100.00
9189;BME280;34313;50.780;6.084;2023-03-13T06:42:56;97978.56;;;12.94;100.00
9189;BME280;34313;50.780;6.084;2023-03-13T06:45:21;97968.56;;;12.97;100.00
9189;BME280;34313;50.780;6.084;2023-03-13T06:47:47;97975.78;;;12.95;100.00
9189;BME280;34313;50.780;6.084;2023-03-13T06:50:13;97983.69;;;12.95;100.00
9189;BME280;34313;50.780;6.084;2023-03-13T06:52:38;97978.41;;;12.95;100.00
9189;BME280;34313;50.780;6.084;2023-03-13T06:55:04;97991.34;;;12.98;100.00
9189;BME280;34313;50.780;6.084;2023-03-13T06:57:30;97975.22;;;13.01;100.00
9189;BME280;34313;50.780;6.084;2023-03-13T06:59:55;97964.59;;;13.11;100.00
9189;BME280;34313;50.780;6.084;2023-03-13T07:02:20;97976.00;;;13.21;100.00
9189;BME280;34313;50.780;6.084;2023-03-13T07:04:45;97968.88;;;13.41;100.00
9189;BME280;34313;50.780;6.084;2023-03-13T07:07:11;97952.09;;;13.60;100.00
9189;BME280;34313;50.780;6.084;2023-03-13T07:09:36;97967.59;;;14.01;99.10
9189;BME280;34313;50.780;6.084;2023-03-13T07:12:02;97954.84;;;14.32;96.05
9189;BME280;34313;50.780;6.084;2023-03-13T07:14:28;97955.06;;;14.39;94.43
9189;BME280;34313;50.780;6.084;2023-03-13T07:16:54;97950.06;;;14.54;93.08
9189;BME280;34313;50.780;6.084;2023-03-13T07:19:19;97952.31;;;14.59;92.43
9189;BME280;34313;50.780;6.084;2023-03-13T07:21:44;97952.34;;;14.67;91.24
9189;BME280;34313;50.780;6.084;2023-03-13T07:24:11;97940.09;;;14.66;91.24
9189;BME280;34313;50.780;6.084;2023-03-13T07:26:36;97950.69;;;14.66;91.24
9189;BME280;34313;50.780;6.084;2023-03-13T07:29:02;97929.00;;;14.52;91.10
9189;BME280;34313;50.780;6.084;2023-03-13T07:31:28;97929.47;;;14.66;90.99
9189;BME280;34313;50.780;6.084;2023-03-13T07:33:57;97942.50;;;14.41;91.68
9189;BME280;34313;50.780;6.084;2023-03-13T07:36:23;97944.69;;;14.28;93.08
9189;BME280;34313;50.780;6.084;2023-03-13T07:38:49;97949.66;;;14.13;93.86
9189;BME280;34313;50.780;6.084;2023-03-13T07:41:15;97955.78;;;13.95;94.95
9189;BME280;34313;50.780;6.084;2023-03-13T07:43:41;97956.91;;;13.93;95.83
9189;BME280;34313;50.780;6.084;2023-03-13T07:46:09;97961.88;;;13.78;96.99
9189;BME280;34313;50.780;6.084;2023-03-13T07:48:36;97948.81;;;13.67;97.62
9189;BME280;34313;50.780;6.084;2023-03-13T07:51:04;97941.88;;;13.66;97.87
9189;BME280;34313;50.780;6.084;2023-03-13T07:53:32;97948.09;;;13.74;97.80
9189;BME280;34313;50.780;6.084;2023-03-13T07:56:10;97933.63;;;13.69;98.70
9189;BME280;34313;50.780;6.084;2023-03-13T07:58:38;97942.22;;;13.80;98.15
9189;BME280;34313;50.780;6.084;2023-03-13T08:01:10;97956.16;;;14.00;99.07
9189;BME280;34313;50.780;6.084;2023-03-13T08:03:37;97964.31;;;13.89;100.00
9189;BME280;34313;50.780;6.084;2023-03-13T08:06:05;97967.78;;;13.90;100.00
9189;BME280;34313;50.780;6.084;2023-03-13T08:08:31;97966.19;;;13.79;100.00
9189;BME280;34313;50.780;6.084;2023-03-13T08:11:02;97968.41;;;13.84;100.00
9189;BME280;34313;50.780;6.084;2023-03-13T08:13:28;97972.22;;;13.71;100.00
9189;BME280;34313;50.780;6.084;2023-03-13T08:16:03;97970.44;;;13.62;100.00
9189;BME280;34313;50.780;6.084;2023-03-13T08:18:35;97946.84;;;13.41;100.00
9189;BME280;34313;50.780;6.084;2023-03-13T08:21:06;97961.63;;;13.43;100.00
9189;BME280;34313;50.780;6.084;2023-03-13T08:23:32;97961.34;;;13.37;100.00
9189;BME280;34313;50.780;6.084;2023-03-13T08:26:17;97955.91;;;13.29;100.00
9189;BME280;34313;50.780;6.084;2023-03-13T08:28:45;97946.19;;;13.19;100.00
9189;BME280;34313;50.780;6.084;2023-03-13T08:31:14;97954.13;;;13.29;100.00
9189;BME280;34313;50.780;6.084;2023-03-13T08:33:41;97954.41;;;13.36;100.00
9189;BME280;34313;50.780;6.084;2023-03-13T08:38:37;97943.84;;;13.36;100.00
9189;BME280;34313;50.780;6.084;2023-03-13T08:41:03;97939.50;;;13.35;100.00
9189;BME280;34313;50.780;6.084;2023-03-13T08:43:28;97942.25;;;13.43;100.00
9189;BME280;34313;50.780;6.084;2023-03-13T08:45:57;97947.66;;;13.51;100.00
9189;BME280;34313;50.780;6.084;2023-03-13T08:48:22;97939.91;;;13.68;100.00
9189;BME280;34313;50.780;6.084;2023-03-13T08:50:59;97950.41;;;13.59;100.00
9189;BME280;34313;50.780;6.084;2023-03-13T08:53:24;97949.72;;;13.57;100.00
9189;BME280;34313;50.780;6.084;2023-03-13T08:55:53;97956.91;;;13.65;100.00
9189;BME280;34313;50.780;6.084;2023-03-13T08:58:19;97957.19;;;13.62;100.00
9189;BME280;34313;50.780;6.084;2023-03-13T09:00:44;97958.34;;;13.59;100.00
9189;BME280;34313;50.780;6.084;2023-03-13T09:03:09;97960.84;;;13.61;100.00
9189;BME280;34313;50.780;6.084;2023-03-13T09:05:36;97950.16;;;13.80;100.00
9189;BME280;34313;50.780;6.084;2023-03-13T09:08:02;97952.91;;;13.89;100.00
9189;BME280;34313;50.780;6.084;2023-03-13T09:10:27;97928.34;;;14.32;100.00
9189;BME280;34313;50.780;6.084;2023-03-13T09:12:53;97939.88;;;15.38;100.00
9189;BME280;34313;50.780;6.084;2023-03-13T09:15:19;97928.06;;;15.66;98.23
9189;BME280;34313;50.780;6.084;2023-03-13T09:17:44;97933.94;;;15.78;97.42
9189;BME280;34313;50.780;6.084;2023-03-13T09:20:10;97945.66;;;15.67;97.56
9189;BME280;34313;50.780;6.084;2023-03-13T09:22:35;97945.78;;;15.58;99.71
9189;BME280;34313;50.780;6.084;2023-03-13T09:25:00;97947.00;;;15.72;99.16
9189;BME280;34313;50.780;6.084;2023-03-13T09:27:26;97940.03;;;15.36;99.88
9189;BME280;34313;50.780;6.084;2023-03-13T09:29:53;97942.59;;;15.20;100.00
9189;BME280;34313;50.780;6.084;2023-03-13T09:32:18;97936.31;;;14.94;100.00
9189;BME280;34313;50.780;6.084;2023-03-13T09:34:45;97926.16;;;14.90;100.00
9189;BME280;34313;50.780;6.084;2023-03-13T09:37:11;97926.88;;;15.00;100.00
9189;BME280;34313;50.780;6.084;2023-03-13T09:39:36;97902.34;;;14.98;100.00
9189;BME280;34313;50.780;6.084;2023-03-13T09:42:26;97927.81;;;15.86;100.00
9189;BME280;34313;50.780;6.084;2023-03-13T09:45:14;97908.78;;;16.15;96.61
9189;BME280;34313;50.780;6.084;2023-03-13T09:47:49;97917.13;;;16.45;93.38
9189;BME280;34313;50.780;6.084;2023-03-13T09:50:31;97900.81;;;16.81;90.86
9189;BME280;34313;50.780;6.084;2023-03-13T09:53:23;97900.69;;;17.47;87.45
9189;BME280;34313;50.780;6.084;2023-03-13T09:55:51;97902.19;;;17.81;83.87
9189;BME280;34313;50.780;6.084;2023-03-13T09:58:20;97915.34;;;17.82;83.42
9189;BME280;34313;50.780;6.084;2023-03-13T10:01:00;97907.66;;;17.48;84.36
9189;BME280;34313;50.780;6.084;2023-03-13T10:03:29;97901.97;;;17.11;86.40
9189;BME280;34313;50.780;6.084;2023-03-13T10:06:00;97904.75;;;17.18;86.49
9189;BME280;34313;50.780;6.084;2023-03-13T10:08:29;97902.09;;;17.18;86.25
9189;BME280;34313;50.780;6.084;2023-03-13T10:13:38;97903.13;;;17.09;86.35
9189;BME280;34313;50.780;6.084;2023-03-13T10:16:11;97867.88;;;16.98;86.78
9189;BME280;34313;50.780;6.084;2023-03-13T10:18:43;97881.34;;;17.05;86.47
9189;BME280;34313;50.780;6.084;2023-03-13T10:21:17;97896.06;;;17.32;84.30
9189;BME280;34313;50.780;6.084;2023-03-13T10:23:50;97886.00;;;17.51;83.73
9189;BME280;34313;50.780;6.084;2023-03-13T10:26:24;97883.19;;;16.96;85.34
9189;BME280;34313;50.780;6.084;2023-03-13T10:28:50;97882.63;;;17.26;84.12
9189;BME280;34313;50.780;6.084;2023-03-13T10:31:36;97881.63;;;17.58;82.19
9189;BME280;34313;50.780;6.084;2023-03-13T10:34:19;97874.50;;;17.58;81.66
9189;BME280;34313;50.780;6.084;2023-03-13T10:36:47;97879.03;;;17.81;80.69
9189;BME280;34313;50.780;6.084;2023-03-13T10:39:15;97875.19;;;17.84;79.75
9189;BME280;34313;50.780;6.084;2023-03-13T10:41:41;97878.56;;;17.38;81.76
9189;BME280;34313;50.780;6.084;2023-03-13T10:44:15;97885.84;;;17.05;83.90
9189;BME280;34313;50.780;6.084;2023-03-13T10:46:43;97883.50;;;16.93;84.19
9189;BME280;34313;50.780;6.084;2023-03-13T10:49:15;97871.41;;;16.74;85.78
9189;BME280;34313;50.780;6.084;2023-03-13T10:51:54;97878.22;;;16.60;88.77
9189;BME280;34313;50.780;6.084;2023-03-13T10:54:25;97865.44;;;16.31;92.12
9189;BME280;34313;50.780;6.084;2023-03-13T10:57:07;97854.28;;;16.19;92.94
9189;BME280;34313;50.780;6.084;2023-03-13T10:59:38;97862.41;;;15.85;95.15
9189;BME280;34313;50.780;6.084;2023-03-13T11:02:26;97848.28;;;15.76;97.61
9189;BME280;34313;50.780;6.084;2023-03-13T11:04:53;97847.34;;;16.18;96.77
9189;BME280;34313;50.780;6.084;2023-03-13T11:07:25;97859.75;;;16.67;91.49
9189;BME280;34313;50.780;6.084;2023-03-13T11:12:47;97832.53;;;16.57;90.69
9189;BME280;34313;50.780;6.084;2023-03-13T11:15:19;97833.19;;;16.42;91.69
9189;BME280;34313;50.780;6.084;2023-03-13T11:18:11;97821.91;;;16.49;90.51
9189;BME280;34313;50.780;6.084;2023-03-13T11:20:37;97824.84;;;16.87;87.67
9189;BME280;34313;50.780;6.084;2023-03-13T11:23:19;97820.44;;;17.10;87.06
9189;BME280;34313;50.780;6.084;2023-03-13T11:26:00;97800.50;;;17.06;87.11
9189;BME280;34313;50.780;6.084;2023-03-13T11:33:37;97771.44;;;16.80;85.60
9189;BME280;34313;50.780;6.084;2023-03-13T11:36:37;97792.75;;;16.72;86.40
9189;BME280;34313;50.780;6.084;2023-03-13T11:39:36;97799.09;;;16.54;87.80
9189;BME280;34313;50.780;6.084;2023-03-13T11:49:59;97778.56;;;17.04;85.92
9189;BME280;34313;50.780;6.084;2023-03-13T11:52:44;97770.28;;;16.91;87.08
9189;BME280;34313;50.780;6.084;2023-03-13T11:55:31;97746.75;;;16.55;87.01
9189;BME280;34313;50.780;6.084;2023-03-13T12:00:41;97740.06;;;16.67;85.95
9189;BME280;34313;50.780;6.084;2023-03-13T12:05:48;97730.44;;;17.06;82.27
9189;BME280;34313;50.780;6.084;2023-03-13T12:08:24;97743.06;;;17.43;80.61
9189;BME280;34313;50.780;6.084;2023-03-13T12:11:17;97733.72;;;17.16;79.58
9189;BME280;34313;50.780;6.084;2023-03-13T12:13:57;97734.50;;;17.25;79.87
9189;BME280;34313;50.780;6.084;2023-03-13T12:16:52;97737.34;;;17.23;79.97
9189;BME280;34313;50.780;6.084;2023-03-13T12:19:26;97722.47;;;17.06;80.46
9189;BME280;34313;50.780;6.084;2023-03-13T12:21:56;97715.38;;;16.90;81.46
9189;BME280;34313;50.780;6.084;2023-03-13T12:24:27;97717.81;;;17.08;80.72
9189;BME280;34313;50.780;6.084;2023-03-13T12:34:54;97701.91;;;17.23;77.50
9189;BME280;34313;50.780;6.084;2023-03-13T12:40:00;97693.47;;;17.42;76.55
9189;BME280;34313;50.780;6.084;2023-03-13T12:42:54;97683.59;;;17.28;76.72
9189;BME280;34313;50.780;6.084;2023-03-13T12:45:21;97682.28;;;17.24;78.05
9189;BME280;34313;50.780;6.084;2023-03-13T12:51:11;97654.56;;;17.56;75.82
9189;BME280;34313;50.780;6.084;2023-03-13T12:57:03;97666.13;;;17.48;75.49
9189;BME280;34313;50.780;6.084;2023-03-13T12:59:41;97652.44;;;17.28;77.20
9189;BME280;34313;50.780;6.084;2023-03-13T13:02:20;97645.88;;;17.16;77.53
9189;BME280;34313;50.780;6.084;2023-03-13T13:04:50;97649.13;;;17.26;77.33
9189;BME280;34313;50.780;6.084;2023-03-13T13:07:31;97643.28;;;17.08;77.96
9189;BME280;34313;50.780;6.084;2023-03-13T13:12:36;97668.25;;;17.07;79.64
9189;BME280;34313;50.780;6.084;2023-03-13T13:18:00;97664.63;;;17.23;79.31
9189;BME280;34313;50.780;6.084;2023-03-13T13:20:39;97658.81;;;16.96;80.33
9189;BME280;34313;50.780;6.084;2023-03-13T13:25:44;97645.28;;;17.06;80.65
9189;BME280;34313;50.780;6.084;2023-03-13T13:28:21;97632.94;;;17.13;80.08
9189;BME280;34313;50.780;6.084;2023-03-13T13:30:47;97606.88;;;17.23;79.36
9189;BME280;34313;50.780;6.084;2023-03-13T13:38:37;97581.72;;;17.34;77.16
9189;BME280;34313;50.780;6.084;2023-03-13T13:43:37;97580.25;;;17.46;76.67
9189;BME280;34313;50.780;6.084;2023-03-13T13:51:35;97552.53;;;17.55;74.49
9189;BME280;34313;50.780;6.084;2023-03-13T13:54:04;97535.06;;;17.53;74.57
9189;BME280;34313;50.780;6.084;2023-03-13T13:56:59;97543.72;;;17.17;76.17
9189;BME280;34313;50.780;6.084;2023-03-13T13:59:35;97548.59;;;17.13;76.08
9189;BME280;34313;50.780;6.084;2023-03-13T14:04:37;97555.38;;;17.16;76.04
9189;BME280;34313;50.780;6.084;2023-03-13T14:07:05;97548.28;;;17.08;75.91
9189;BME280;34313;50.780;6.084;2023-03-13T14:09:32;97561.47;;;17.01;76.07
9189;BME280;34313;50.780;6.084;2023-03-13T14:11:59;97540.44;;;16.92;76.38
9189;BME280;34313;50.780;6.084;2023-03-13T14:14:24;97522.53;;;16.86;76.98
9189;BME280;34313;50.780;6.084;2023-03-13T14:16:52;97527.03;;;16.85;77.30
9189;BME280;34313;50.780;6.084;2023-03-13T14:19:37;97538.19;;;17.04;76.93
9189;BME280;34313;50.780;6.084;2023-03-13T14:22:10;97536.38;;;17.04;77.22
9189;BME280;34313;50.780;6.084;2023-03-13T14:24:38;97535.66;;;16.79;77.22
9189;BME280;34313;50.780;6.084;2023-03-13T14:27:15;97540.00;;;16.57;78.35
9189;BME280;34313;50.780;6.084;2023-03-13T14:29:40;97540.84;;;16.49;78.97